Time;durP1;ratioP1;P1;durP2;ratioP2;P2;SDS_P1;SDS_P2;PMS_P1;PMS_P2;Temp;Humidity;BMP_temperature;BMP_pressure;BME280_temperature;BME280_humidity;BME280_pressure;Samples;Min_cycle;Max_cycle;Signal;HPM_P1;HPM_P2
2024/01/13 00:01:02;;;;;;;0.10;0.10;;;;;;;;;;5034787;28;20119;-88
2024/01/13 00:03:28;;;;;;;0.10;0.10;;;;;;;;;;5018460;28;20041;-88
2024/01/13 00:05:54;;;;;;;0.10;0.10;;;;;;;;;;5034546;28;20057;-87
2024/01/13 00:08:20;;;;;;;0.10;0.10;;;;;;;;;;5034768;28;20055;-88
2024/01/13 00:10:46;;;;;;;0.22;0.22;;;;;;;;;;5051125;28;20594;-88
2024/01/13 00:13:12;;;;;;;0.10;0.10;;;;;;;;;;5018571;28;20167;-87
2024/01/13 00:15:39;;;;;;;0.10;0.10;;;;;;;;;;5034436;28;20040;-87
2024/01/13 00:18:06;;;;;;;0.10;0.10;;;;;;;;;;5034397;28;20044;-87
2024/01/13 00:20:32;;;;;;;0.10;0.10;;;;;;;;;;5034192;28;20041;-87
2024/01/13 00:22:58;;;;;;;0.20;0.20;;;;;;;;;;5034468;28;20124;-87
2024/01/13 00:25:24;;;;;;;0.10;0.10;;;;;;;;;;5034632;28;20488;-87
2024/01/13 00:27:50;;;;;;;0.10;0.10;;;;;;;;;;5034198;28;20048;-87
2024/01/13 00:30:16;;;;;;;0.10;0.10;;;;;;;;;;5034283;28;20076;-87
2024/01/13 00:32:42;;;;;;;0.10;0.10;;;;;;;;;;5034597;28;20116;-87
2024/01/13 00:35:08;;;;;;;0.10;0.10;;;;;;;;;;5034223;28;20048;-87
2024/01/13 00:37:35;;;;;;;0.10;0.10;;;;;;;;;;5050787;28;20051;-87
2024/01/13 00:40:00;;;;;;;0.10;0.10;;;;;;;;;;5034206;28;20112;-86
2024/01/13 00:42:26;;;;;;;0.10;0.10;;;;;;;;;;5034465;28;20465;-87
2024/01/13 00:44:52;;;;;;;0.10;0.10;;;;;;;;;;5017860;28;20040;-88
2024/01/13 00:47:18;;;;;;;0.10;0.10;;;;;;;;;;5034376;28;20033;-87
2024/01/13 00:49:44;;;;;;;0.10;0.10;;;;;;;;;;5050681;28;20067;-87
2024/01/13 00:52:10;;;;;;;0.10;0.10;;;;;;;;;;5034454;28;20068;-88
2024/01/13 00:54:36;;;;;;;0.20;0.20;;;;;;;;;;5050800;28;20044;-88
2024/01/13 00:57:03;;;;;;;0.10;0.10;;;;;;;;;;5050926;28;20048;-88
2024/01/13 00:59:28;;;;;;;0.10;0.10;;;;;;;;;;5017872;28;20045;-87
2024/01/13 01:01:55;;;;;;;0.10;0.10;;;;;;;;;;5034031;28;20037;-87
2024/01/13 01:04:21;;;;;;;0.10;0.10;;;;;;;;;;5034266;28;20491;-87
2024/01/13 01:06:47;;;;;;;0.10;0.10;;;;;;;;;;5018938;28;20520;-87
2024/01/13 01:09:13;;;;;;;0.10;0.10;;;;;;;;;;5054456;28;20052;-86
2024/01/13 01:11:39;;;;;;;0.10;0.10;;;;;;;;;;5021665;28;20087;-87
2024/01/13 01:14:04;;;;;;;0.20;0.20;;;;;;;;;;5054340;28;20503;-87
2024/01/13 01:16:30;;;;;;;0.20;0.20;;;;;;;;;;5054302;28;20041;-87
2024/01/13 01:18:57;;;;;;;0.10;0.10;;;;;;;;;;5021210;28;20041;-87
2024/01/13 01:21:22;;;;;;;0.10;0.10;;;;;;;;;;5037704;28;20170;-87
2024/01/13 01:23:49;;;;;;;0.10;0.10;;;;;;;;;;5037794;28;20068;-87
2024/01/13 01:26:15;;;;;;;0.10;0.10;;;;;;;;;;5037700;28;20044;-87
2024/01/13 01:28:40;;;;;;;0.10;0.10;;;;;;;;;;5054284;28;20045;-87
2024/01/13 01:31:07;;;;;;;0.10;0.10;;;;;;;;;;5021501;28;20048;-87
2024/01/13 01:33:33;;;;;;;0.10;0.10;;;;;;;;;;5037759;28;20037;-87
2024/01/13 01:35:59;;;;;;;0.10;0.10;;;;;;;;;;5037778;28;20048;-87
2024/01/13 01:38:25;;;;;;;0.10;0.10;;;;;;;;;;5037576;28;20052;-87
2024/01/13 01:40:54;;;;;;;0.10;0.10;;;;;;;;;;5020889;28;20128;-87
2024/01/13 01:43:20;;;;;;;0.10;0.10;;;;;;;;;;5037415;28;20041;-87
2024/01/13 01:45:51;;;;;;;0.10;0.10;;;;;;;;;;5037305;28;20037;-87
2024/01/13 01:48:17;;;;;;;0.10;0.10;;;;;;;;;;5037375;28;20041;-87
2024/01/13 01:50:43;;;;;;;0.20;0.20;;;;;;;;;;5037186;28;20186;-87
2024/01/13 01:53:11;;;;;;;0.10;0.10;;;;;;;;;;5020900;28;20045;-87
2024/01/13 01:55:37;;;;;;;0.10;0.10;;;;;;;;;;5020941;28;20558;-86
2024/01/13 01:58:03;;;;;;;0.10;0.10;;;;;;;;;;5036963;28;20538;-87
2024/01/13 02:00:29;;;;;;;0.10;0.10;;;;;;;;;;5020367;28;20033;-87
2024/01/13 02:02:55;;;;;;;0.10;0.10;;;;;;;;;;5020516;28;20084;-87
2024/01/13 02:05:21;;;;;;;0.10;0.10;;;;;;;;;;5036922;28;20092;-87
2024/01/13 02:07:50;;;;;;;0.10;0.10;;;;;;;;;;5037126;28;20070;-87
2024/01/13 02:10:20;;;;;;;0.15;0.15;;;;;;;;;;5037069;28;20037;-88
2024/01/13 02:12:46;;;;;;;0.10;0.10;;;;;;;;;;5020501;28;20346;-88
2024/01/13 02:15:12;;;;;;;0.10;0.10;;;;;;;;;;5037093;28;20330;-88
2024/01/13 02:17:38;;;;;;;0.10;0.10;;;;;;;;;;5020009;28;20044;-87
2024/01/13 02:20:05;;;;;;;0.10;0.10;;;;;;;;;;5036750;28;20060;-87
2024/01/13 02:22:32;;;;;;;0.10;0.10;;;;;;;;;;5020724;28;20130;-88
2024/01/13 02:24:58;;;;;;;0.10;0.10;;;;;;;;;;5036550;28;20041;-88
2024/01/13 02:27:24;;;;;;;0.10;0.10;;;;;;;;;;5020239;28;20370;-88
2024/01/13 02:29:50;;;;;;;0.10;0.10;;;;;;;;;;5020143;28;20051;-87
2024/01/13 02:32:16;;;;;;;0.10;0.10;;;;;;;;;;5053270;28;20044;-88
2024/01/13 02:34:42;;;;;;;0.10;0.10;;;;;;;;;;5036496;28;20090;-88
2024/01/13 02:37:08;;;;;;;0.10;0.10;;;;;;;;;;5036850;28;20048;-88
2024/01/13 02:39:34;;;;;;;0.10;0.10;;;;;;;;;;5036792;28;20396;-88
2024/01/13 02:42:00;;;;;;;0.10;0.10;;;;;;;;;;5037136;28;20083;-87
2024/01/13 02:44:26;;;;;;;0.10;0.10;;;;;;;;;;5036916;28;20041;-87
2024/01/13 02:46:52;;;;;;;0.10;0.10;;;;;;;;;;5036711;28;20041;-88
2024/01/13 02:49:18;;;;;;;0.10;0.10;;;;;;;;;;5036825;28;20124;-88
2024/01/13 02:51:44;;;;;;;0.10;0.10;;;;;;;;;;5036887;28;20140;-88
2024/01/13 02:54:10;;;;;;;0.10;0.10;;;;;;;;;;5036735;28;20045;-87
2024/01/13 02:56:36;;;;;;;0.10;0.10;;;;;;;;;;5052916;28;20048;-88
2024/01/13 02:59:02;;;;;;;0.10;0.10;;;;;;;;;;5036353;28;20649;-87
2024/01/13 03:01:30;;;;;;;0.10;0.10;;;;;;;;;;5036321;28;20037;-88
2024/01/13 03:03:57;;;;;;;0.10;0.10;;;;;;;;;;5036779;28;20051;-89
2024/01/13 03:06:23;;;;;;;0.10;0.10;;;;;;;;;;5036829;28;20091;-89
2024/01/13 03:08:49;;;;;;;0.10;0.10;;;;;;;;;;5037458;28;20052;-89
2024/01/13 03:11:15;;;;;;;0.10;0.10;;;;;;;;;;5037237;28;20044;-89
2024/01/13 03:13:41;;;;;;;0.20;0.20;;;;;;;;;;5037201;28;20102;-89
2024/01/13 03:16:07;;;;;;;0.22;0.22;;;;;;;;;;5020090;28;20443;-90
2024/01/13 03:18:33;;;;;;;0.10;0.10;;;;;;;;;;5036531;28;20063;-90
2024/01/13 03:20:59;;;;;;;0.10;0.10;;;;;;;;;;5052892;28;20112;-89
2024/01/13 03:23:25;;;;;;;0.10;0.10;;;;;;;;;;5019617;28;20120;-89
2024/01/13 03:25:51;;;;;;;0.10;0.10;;;;;;;;;;5035768;28;20208;-90
2024/01/13 03:28:17;;;;;;;0.10;0.10;;;;;;;;;;5035745;28;20044;-87
2024/01/13 03:30:43;;;;;;;0.10;0.10;;;;;;;;;;5018251;28;20036;-88
2024/01/13 03:33:09;;;;;;;0.10;0.10;;;;;;;;;;5035311;28;20045;-88
2024/01/13 03:35:35;;;;;;;0.10;0.10;;;;;;;;;;5051923;28;20041;-88
2024/01/13 03:38:01;;;;;;;0.20;0.20;;;;;;;;;;5035367;28;20049;-87
2024/01/13 03:40:27;;;;;;;0.10;0.10;;;;;;;;;;5051385;28;20044;-88
2024/01/13 03:42:53;;;;;;;0.10;0.10;;;;;;;;;;5051773;28;20056;-87
2024/01/13 03:45:19;;;;;;;0.10;0.10;;;;;;;;;;5034892;28;20037;-87
2024/01/13 03:47:45;;;;;;;0.10;0.10;;;;;;;;;;5035138;28;20127;-88
2024/01/13 03:50:12;;;;;;;0.10;0.10;;;;;;;;;;5034681;28;20567;-87
2024/01/13 03:52:38;;;;;;;0.10;0.10;;;;;;;;;;5035223;28;20360;-88
2024/01/13 03:55:04;;;;;;;0.10;0.10;;;;;;;;;;5034728;28;20048;-88
2024/01/13 03:57:30;;;;;;;0.10;0.10;;;;;;;;;;5051581;28;20389;-87
2024/01/13 03:59:56;;;;;;;0.10;0.10;;;;;;;;;;5034633;28;20041;-87
2024/01/13 04:02:22;;;;;;;0.10;0.10;;;;;;;;;;5034740;28;20048;-88
2024/01/13 04:04:48;;;;;;;0.10;0.10;;;;;;;;;;5034858;28;20154;-88
2024/01/13 04:07:14;;;;;;;0.10;0.10;;;;;;;;;;5017980;28;20048;-88
2024/01/13 04:09:40;;;;;;;0.10;0.10;;;;;;;;;;5051063;28;20047;-88
2024/01/13 04:12:07;;;;;;;0.10;0.10;;;;;;;;;;5034878;28;20114;-88
2024/01/13 04:14:33;;;;;;;0.10;0.10;;;;;;;;;;5034753;28;20124;-88
2024/01/13 04:16:59;;;;;;;0.10;0.10;;;;;;;;;;5051023;28;20049;-88
2024/01/13 04:19:25;;;;;;;0.10;0.10;;;;;;;;;;5018113;28;20041;-88
2024/01/13 04:21:51;;;;;;;0.10;0.10;;;;;;;;;;5018011;28;20043;-88
2024/01/13 04:24:17;;;;;;;0.13;0.13;;;;;;;;;;5034783;28;20059;-88
2024/01/13 04:26:43;;;;;;;0.10;0.10;;;;;;;;;;5051065;28;20044;-89
2024/01/13 04:29:10;;;;;;;0.10;0.10;;;;;;;;;;5034576;28;20068;-89
2024/01/13 04:31:36;;;;;;;0.10;0.10;;;;;;;;;;5017999;28;20048;-89
2024/01/13 04:34:02;;;;;;;0.10;0.10;;;;;;;;;;5018420;28;20055;-89
2024/01/13 04:36:28;;;;;;;0.10;0.10;;;;;;;;;;5034663;28;20052;-89
2024/01/13 04:38:55;;;;;;;0.10;0.10;;;;;;;;;;5034605;28;20400;-89
2024/01/13 04:41:21;;;;;;;0.10;0.10;;;;;;;;;;5022616;28;20076;-89
2024/01/13 04:43:47;;;;;;;0.10;0.10;;;;;;;;;;5025037;28;20198;-89
2024/01/13 04:46:13;;;;;;;0.10;0.10;;;;;;;;;;5041493;28;20218;-89
2024/01/13 04:48:42;;;;;;;0.10;0.10;;;;;;;;;;5041643;28;20045;-89
2024/01/13 04:51:08;;;;;;;0.10;0.10;;;;;;;;;;5058522;28;20128;-89
2024/01/13 04:53:34;;;;;;;0.10;0.10;;;;;;;;;;5025020;28;20079;-90
2024/01/13 04:56:00;;;;;;;0.10;0.10;;;;;;;;;;5041661;28;20075;-89
2024/01/13 04:58:26;;;;;;;0.10;0.10;;;;;;;;;;5025264;28;20045;-89
2024/01/13 05:00:53;;;;;;;0.10;0.10;;;;;;;;;;5058112;28;20051;-89
2024/01/13 05:03:19;;;;;;;0.10;0.10;;;;;;;;;;5041196;28;20033;-89
2024/01/13 05:05:45;;;;;;;0.10;0.10;;;;;;;;;;5041273;28;20053;-90
2024/01/13 05:08:11;;;;;;;0.10;0.10;;;;;;;;;;5041626;28;20056;-89
2024/01/13 05:10:37;;;;;;;0.10;0.10;;;;;;;;;;5041611;28;20052;-88
2024/01/13 05:13:03;;;;;;;0.10;0.10;;;;;;;;;;5025153;28;20071;-89
2024/01/13 05:15:29;;;;;;;0.10;0.10;;;;;;;;;;5041477;28;20127;-89
2024/01/13 05:17:55;;;;;;;0.10;0.10;;;;;;;;;;5024864;28;20083;-89
2024/01/13 05:20:21;;;;;;;0.20;0.20;;;;;;;;;;5057695;28;20093;-89
2024/01/13 05:22:47;;;;;;;0.10;0.10;;;;;;;;;;5041109;28;20114;-89
2024/01/13 05:25:13;;;;;;;0.10;0.10;;;;;;;;;;5041498;28;20076;-89
2024/01/13 05:27:39;;;;;;;0.10;0.10;;;;;;;;;;5041483;28;20032;-89
2024/01/13 05:30:06;;;;;;;0.10;0.10;;;;;;;;;;5024613;28;20392;-88
2024/01/13 05:32:32;;;;;;;1.08;0.40;;;;;;;;;;5040752;28;20048;-88
2024/01/13 05:34:58;;;;;;;0.10;0.10;;;;;;;;;;5056970;28;20044;-87
2024/01/13 05:37:24;;;;;;;0.10;0.10;;;;;;;;;;5057187;28;20045;-88
2024/01/13 05:39:50;;;;;;;0.10;0.10;;;;;;;;;;5040753;28;20141;-89
2024/01/13 05:42:16;;;;;;;0.10;0.10;;;;;;;;;;5023950;28;20086;-88
2024/01/13 05:44:42;;;;;;;0.10;0.10;;;;;;;;;;5024240;28;20045;-88
2024/01/13 05:47:09;;;;;;;0.75;0.30;;;;;;;;;;5057135;28;20041;-88
2024/01/13 05:49:35;;;;;;;0.10;0.10;;;;;;;;;;5040358;28;20041;-88
2024/01/13 05:52:01;;;;;;;0.10;0.10;;;;;;;;;;5022789;28;20203;-88
2024/01/13 05:54:27;;;;;;;0.10;0.10;;;;;;;;;;5038790;28;20071;-93
2024/01/13 05:56:53;;;;;;;0.10;0.10;;;;;;;;;;5022560;28;20526;-92
2024/01/13 05:59:19;;;;;;;0.10;0.10;;;;;;;;;;5039331;28;20068;-90
2024/01/13 06:01:45;;;;;;;0.10;0.10;;;;;;;;;;5037687;28;20041;-89
2024/01/13 06:04:11;;;;;;;0.10;0.10;;;;;;;;;;5020830;28;20507;-88
2024/01/13 06:06:37;;;;;;;0.10;0.10;;;;;;;;;;5053780;28;20091;-88
2024/01/13 06:09:03;;;;;;;0.10;0.10;;;;;;;;;;5037613;28;20047;-88
2024/01/13 06:11:29;;;;;;;0.10;0.10;;;;;;;;;;5020777;28;20123;-88
2024/01/13 06:13:56;;;;;;;0.28;0.28;;;;;;;;;;5020546;28;20047;-88
2024/01/13 06:16:22;;;;;;;0.10;0.10;;;;;;;;;;5020605;28;20110;-88
2024/01/13 06:18:48;;;;;;;0.10;0.10;;;;;;;;;;5036752;28;20516;-88
2024/01/13 06:21:14;;;;;;;0.10;0.10;;;;;;;;;;5036801;28;20090;-88
2024/01/13 06:23:40;;;;;;;0.20;0.20;;;;;;;;;;5053474;28;20037;-89
2024/01/13 06:26:06;;;;;;;0.10;0.10;;;;;;;;;;5036986;28;20041;-88
2024/01/13 06:28:32;;;;;;;0.10;0.10;;;;;;;;;;5036444;28;20041;-88
2024/01/13 06:30:58;;;;;;;0.10;0.10;;;;;;;;;;5020333;28;20123;-89
2024/01/13 06:33:26;;;;;;;0.10;0.10;;;;;;;;;;5053416;28;20457;-88
2024/01/13 06:35:52;;;;;;;0.10;0.10;;;;;;;;;;5036750;28;20045;-88
2024/01/13 06:38:18;;;;;;;0.10;0.10;;;;;;;;;;5053177;28;20037;-89
2024/01/13 06:40:44;;;;;;;0.10;0.10;;;;;;;;;;5020334;28;20033;-88
2024/01/13 06:43:10;;;;;;;0.10;0.10;;;;;;;;;;5036835;28;20174;-88
2024/01/13 06:45:37;;;;;;;0.10;0.10;;;;;;;;;;5020218;28;20037;-89
2024/01/13 06:48:03;;;;;;;0.10;0.10;;;;;;;;;;5036431;28;20124;-89
2024/01/13 06:50:29;;;;;;;0.10;0.10;;;;;;;;;;5053294;28;20491;-89
2024/01/13 06:52:55;;;;;;;0.10;0.10;;;;;;;;;;5036490;28;20041;-88
2024/01/13 06:55:24;;;;;;;0.10;0.10;;;;;;;;;;5019902;28;20285;-89
2024/01/13 06:57:51;;;;;;;0.10;0.10;;;;;;;;;;5020458;28;20099;-87
2024/01/13 07:00:17;;;;;;;0.10;0.10;;;;;;;;;;5037243;28;20059;-90
2024/01/13 07:02:44;;;;;;;0.10;0.10;;;;;;;;;;5019749;28;20571;-91
2024/01/13 07:05:12;;;;;;;0.10;0.10;;;;;;;;;;5019616;28;20041;-91
2024/01/13 07:07:40;;;;;;;0.10;0.10;;;;;;;;;;5020939;28;20045;-89
2024/01/13 07:10:07;;;;;;;0.10;0.10;;;;;;;;;;5036114;28;20045;-89
2024/01/13 07:12:32;;;;;;;0.10;0.10;;;;;;;;;;5036817;28;20041;-91
2024/01/13 07:14:59;;;;;;;0.10;0.10;;;;;;;;;;5020028;28;20036;-90
2024/01/13 07:17:24;;;;;;;0.10;0.10;;;;;;;;;;5053068;28;20397;-90
2024/01/13 07:19:51;;;;;;;0.10;0.10;;;;;;;;;;5036705;28;20052;-91
2024/01/13 07:22:17;;;;;;;0.20;0.20;;;;;;;;;;5020311;28;20033;-89
2024/01/13 07:24:43;;;;;;;0.10;0.10;;;;;;;;;;5019630;28;20037;-89
2024/01/13 07:27:10;;;;;;;0.10;0.10;;;;;;;;;;5035785;28;20220;-87
2024/01/13 07:29:36;;;;;;;0.10;0.10;;;;;;;;;;5035936;28;20045;-86
2024/01/13 07:32:02;;;;;;;0.13;0.13;;;;;;;;;;5051732;28;20128;-87
2024/01/13 07:34:28;;;;;;;0.10;0.10;;;;;;;;;;5035321;28;20037;-86
2024/01/13 07:36:54;;;;;;;0.10;0.10;;;;;;;;;;5035401;28;20079;-86
2024/01/13 07:39:20;;;;;;;0.10;0.10;;;;;;;;;;5035128;28;20472;-87
2024/01/13 07:41:48;;;;;;;0.10;0.10;;;;;;;;;;5018747;28;20072;-87
2024/01/13 07:44:14;;;;;;;0.10;0.10;;;;;;;;;;5035233;28;20090;-87
2024/01/13 07:46:43;;;;;;;0.10;0.10;;;;;;;;;;5051546;28;20037;-87
2024/01/13 07:49:09;;;;;;;0.10;0.10;;;;;;;;;;5051414;28;20044;-87
2024/01/13 07:51:36;;;;;;;0.10;0.10;;;;;;;;;;5034823;28;20132;-87
2024/01/13 07:54:02;;;;;;;0.10;0.10;;;;;;;;;;5051444;28;20049;-86
2024/01/13 07:56:28;;;;;;;0.17;0.17;;;;;;;;;;5018633;28;20041;-87
2024/01/13 07:58:54;;;;;;;0.10;0.10;;;;;;;;;;5034649;28;20084;-87
2024/01/13 08:01:20;;;;;;;0.10;0.10;;;;;;;;;;5035098;28;20090;-87
2024/01/13 08:03:46;;;;;;;0.10;0.10;;;;;;;;;;5034744;28;20120;-87
2024/01/13 08:06:13;;;;;;;0.10;0.10;;;;;;;;;;5051193;28;20400;-86
2024/01/13 08:08:39;;;;;;;0.10;0.10;;;;;;;;;;5034616;28;20126;-87
2024/01/13 08:11:05;;;;;;;0.10;0.10;;;;;;;;;;5034555;28;20095;-87
2024/01/13 08:13:31;;;;;;;0.10;0.10;;;;;;;;;;5034761;28;20051;-88
2024/01/13 08:15:58;;;;;;;0.10;0.10;;;;;;;;;;5034724;28;20132;-87
2024/01/13 08:18:24;;;;;;;0.10;0.10;;;;;;;;;;5035636;28;20036;-91
2024/01/13 08:20:51;;;;;;;0.10;0.10;;;;;;;;;;5035293;28;20111;-89
2024/01/13 08:23:18;;;;;;;0.10;0.10;;;;;;;;;;5035101;28;20072;-90
2024/01/13 08:25:44;;;;;;;0.52;0.52;;;;;;;;;;5018599;28;20114;-87
2024/01/13 08:28:10;;;;;;;0.57;0.30;;;;;;;;;;5017977;28;20045;-88
2024/01/13 08:30:37;;;;;;;0.30;0.30;;;;;;;;;;5034733;28;20041;-87
2024/01/13 08:33:04;;;;;;;0.10;0.10;;;;;;;;;;5018233;28;20041;-87
2024/01/13 08:35:33;;;;;;;0.10;0.10;;;;;;;;;;5034746;28;20120;-87
2024/01/13 08:37:59;;;;;;;0.20;0.20;;;;;;;;;;5051096;28;20045;-92
2024/01/13 08:40:26;;;;;;;0.10;0.10;;;;;;;;;;5018056;28;20048;-88
2024/01/13 08:42:52;;;;;;;0.10;0.10;;;;;;;;;;5034567;28;20052;-88
2024/01/13 08:45:23;;;;;;;0.20;0.20;;;;;;;;;;5050641;28;20086;-86
2024/01/13 08:47:49;;;;;;;0.30;0.30;;;;;;;;;;5034976;28;20090;-86
2024/01/13 08:50:15;;;;;;;0.20;0.20;;;;;;;;;;5034091;28;20505;-86
2024/01/13 08:52:41;;;;;;;0.22;0.22;;;;;;;;;;5050733;28;20048;-87
2024/01/13 08:55:08;;;;;;;0.20;0.20;;;;;;;;;;5034043;28;20051;-86
2024/01/13 08:57:34;;;;;;;0.10;0.10;;;;;;;;;;5033219;28;20037;-86
2024/01/13 09:00:00;;;;;;;0.20;0.20;;;;;;;;;;5033719;28;20469;-85
2024/01/13 09:02:26;;;;;;;0.20;0.20;;;;;;;;;;5014160;28;20041;-86
2024/01/13 09:04:52;;;;;;;0.10;0.10;;;;;;;;;;5030651;28;20044;-86
2024/01/13 09:07:22;;;;;;;0.10;0.10;;;;;;;;;;5046453;28;20103;-89
2024/01/13 09:09:48;;;;;;;3.92;0.50;;;;;;;;;;5017770;28;20037;-87
2024/01/13 09:12:14;;;;;;;0.10;0.10;;;;;;;;;;5033876;28;20044;-87
2024/01/13 09:14:40;;;;;;;0.25;0.20;;;;;;;;;;5034679;28;20063;-93
2024/01/13 09:17:06;;;;;;;0.10;0.10;;;;;;;;;;5020743;28;20049;-94
2024/01/13 09:19:32;;;;;;;0.52;0.52;;;;;;;;;;5041423;28;20052;-90
2024/01/13 09:21:58;;;;;;;3.10;0.65;;;;;;;;;;5017114;28;20460;-88
2024/01/13 09:24:24;;;;;;;0.75;0.75;;;;;;;;;;5034110;28;20171;-88
2024/01/13 09:26:50;;;;;;;0.10;0.10;;;;;;;;;;5050513;28;20079;-88
2024/01/13 09:29:16;;;;;;;0.30;0.30;;;;;;;;;;5037804;28;20488;-87
2024/01/13 09:31:42;;;;;;;0.32;0.17;;;;;;;;;;5021352;28;20451;-87
2024/01/13 09:34:09;;;;;;;0.45;0.45;;;;;;;;;;5037647;28;20040;-87
2024/01/13 09:36:35;;;;;;;0.30;0.30;;;;;;;;;;5037306;28;20037;-88
2024/01/13 09:39:01;;;;;;;0.13;0.13;;;;;;;;;;5037333;28;20098;-88
2024/01/13 09:41:30;;;;;;;0.57;0.47;;;;;;;;;;5037760;28;20064;-88
2024/01/13 09:44:06;;;;;;;0.15;0.15;;;;;;;;;;5037618;28;20053;-87
2024/01/13 09:46:33;;;;;;;0.40;0.40;;;;;;;;;;5038329;28;20063;-88
2024/01/13 09:49:00;;;;;;;0.10;0.10;;;;;;;;;;5037898;28;20044;-89
2024/01/13 09:51:25;;;;;;;0.55;0.55;;;;;;;;;;5021080;28;20045;-89
2024/01/13 09:53:55;;;;;;;0.28;0.28;;;;;;;;;;5038159;28;20048;-90
2024/01/13 09:56:24;;;;;;;0.10;0.10;;;;;;;;;;5037619;28;20123;-91
2024/01/13 09:58:50;;;;;;;0.73;0.50;;;;;;;;;;5037002;28;20048;-87
2024/01/13 10:01:16;;;;;;;0.90;0.68;;;;;;;;;;5037153;28;20040;-94
2024/01/13 10:03:42;;;;;;;1.10;0.75;;;;;;;;;;5053837;28;20040;-90
2024/01/13 10:06:08;;;;;;;1.13;1.02;;;;;;;;;;5036980;28;20128;-88
2024/01/13 10:08:34;;;;;;;0.10;0.10;;;;;;;;;;5054507;28;20041;-92
2024/01/13 10:11:03;;;;;;;0.30;0.30;;;;;;;;;;5019022;28;20064;-89
2024/01/13 10:13:32;;;;;;;0.40;0.40;;;;;;;;;;5037291;28;20403;-90
2024/01/13 10:15:58;;;;;;;0.95;0.60;;;;;;;;;;5020533;28;20511;-88
2024/01/13 10:18:25;;;;;;;0.10;0.10;;;;;;;;;;5036671;28;20487;-90
2024/01/13 10:20:51;;;;;;;0.20;0.20;;;;;;;;;;5037091;28;20049;-89
2024/01/13 10:23:18;;;;;;;0.10;0.10;;;;;;;;;;5036725;28;20044;-89
2024/01/13 10:25:44;;;;;;;0.10;0.10;;;;;;;;;;5036683;28;20124;-89
2024/01/13 10:28:10;;;;;;;0.20;0.20;;;;;;;;;;5020141;28;20069;-89
2024/01/13 10:30:37;;;;;;;0.20;0.20;;;;;;;;;;5037157;28;20041;-89
2024/01/13 10:33:03;;;;;;;0.32;0.17;;;;;;;;;;5020753;28;20033;-88
2024/01/13 10:35:29;;;;;;;0.10;0.10;;;;;;;;;;5053139;28;20036;-88
2024/01/13 10:37:58;;;;;;;0.20;0.20;;;;;;;;;;5036556;28;20037;-90
2024/01/13 10:40:25;;;;;;;0.57;0.57;;;;;;;;;;5019855;28;20041;-89
2024/01/13 10:42:58;;;;;;;0.40;0.40;;;;;;;;;;5036363;28;20037;-91
2024/01/13 10:45:24;;;;;;;0.30;0.30;;;;;;;;;;5036387;28;20037;-90
2024/01/13 10:47:52;;;;;;;0.25;0.25;;;;;;;;;;5036593;28;20073;-88
2024/01/13 10:50:18;;;;;;;0.70;0.38;;;;;;;;;;5019696;28;20040;-88
2024/01/13 10:52:49;;;;;;;3.30;1.00;;;;;;;;;;5019754;28;20032;-89
2024/01/13 10:55:17;;;;;;;0.30;0.30;;;;;;;;;;5036422;28;20041;-88
2024/01/13 10:57:44;;;;;;;0.43;0.43;;;;;;;;;;5037186;28;20043;-90
2024/01/13 11:00:10;;;;;;;0.80;0.30;;;;;;;;;;5042409;28;20094;-89
2024/01/13 11:02:37;;;;;;;0.40;0.40;;;;;;;;;;5021052;28;20489;-90
2024/01/13 11:05:04;;;;;;;0.95;0.88;;;;;;;;;;5020166;28;20047;-91
2024/01/13 11:07:30;;;;;;;1.48;1.38;;;;;;;;;;5020154;28;20094;-91
2024/01/13 11:09:56;;;;;;;0.30;0.30;;;;;;;;;;5036777;28;20484;-90
2024/01/13 11:12:27;;;;;;;0.20;0.20;;;;;;;;;;5036684;28;20049;-91
2024/01/13 11:14:59;;;;;;;0.35;0.35;;;;;;;;;;5020089;28;20045;-92
2024/01/13 11:17:25;;;;;;;13.32;2.63;;;;;;;;;;5037019;28;20445;-90
2024/01/13 11:19:51;;;;;;;0.47;0.40;;;;;;;;;;5036076;28;20614;-92
2024/01/13 11:22:33;;;;;;;0.10;0.10;;;;;;;;;;5019438;28;20037;-92
2024/01/13 11:24:59;;;;;;;0.73;0.73;;;;;;;;;;5036988;28;20098;-88
2024/01/13 11:27:25;;;;;;;0.10;0.10;;;;;;;;;;5036762;28;20045;-90
2024/01/13 11:29:51;;;;;;;0.70;0.40;;;;;;;;;;5039649;28;20104;-93
2024/01/13 11:32:17;;;;;;;0.10;0.10;;;;;;;;;;5021036;28;20037;-93
2024/01/13 11:34:44;;;;;;;0.10;0.10;;;;;;;;;;5020172;28;20133;-92
2024/01/13 11:37:10;;;;;;;0.10;0.10;;;;;;;;;;5020523;28;20125;-93
2024/01/13 11:39:36;;;;;;;0.10;0.10;;;;;;;;;;5035940;28;20128;-90
2024/01/13 11:42:03;;;;;;;0.20;0.20;;;;;;;;;;5052438;28;20033;-92
2024/01/13 11:49:44;;;;;;;0.30;0.30;;;;;;;;;;5052536;28;20056;-92
2024/01/13 11:52:14;;;;;;;0.43;0.40;;;;;;;;;;5038897;28;20052;-90
2024/01/13 11:54:40;;;;;;;0.10;0.10;;;;;;;;;;5039086;28;20499;-91
2024/01/13 11:57:10;;;;;;;0.30;0.30;;;;;;;;;;5071893;28;20474;-90
2024/01/13 11:59:36;;;;;;;2.10;0.40;;;;;;;;;;5055526;28;20047;-92
2024/01/13 12:02:04;;;;;;;0.10;0.10;;;;;;;;;;5039118;28;20041;-88
2024/01/13 12:04:34;;;;;;;0.10;0.10;;;;;;;;;;5037579;28;20487;-88
2024/01/13 12:07:01;;;;;;;0.10;0.10;;;;;;;;;;5037791;28;20068;-86
2024/01/13 12:09:27;;;;;;;0.10;0.10;;;;;;;;;;5054542;28;20044;-86
2024/01/13 12:11:57;;;;;;;0.10;0.10;;;;;;;;;;5054440;28;20048;-86
2024/01/13 12:14:24;;;;;;;0.10;0.10;;;;;;;;;;5071028;28;20051;-88
2024/01/13 12:16:50;;;;;;;0.20;0.20;;;;;;;;;;5054937;28;20070;-88
2024/01/13 12:19:16;;;;;;;0.35;0.35;;;;;;;;;;5054210;28;20127;-88
2024/01/13 12:21:42;;;;;;;0.57;0.57;;;;;;;;;;5070792;28;20495;-88
2024/01/13 12:24:08;;;;;;;0.10;0.10;;;;;;;;;;5054285;28;20036;-88
2024/01/13 12:26:35;;;;;;;0.20;0.20;;;;;;;;;;5054383;28;20040;-87
2024/01/13 12:29:01;;;;;;;0.20;0.20;;;;;;;;;;5070883;28;20059;-87
2024/01/13 12:31:27;;;;;;;0.43;0.43;;;;;;;;;;5054194;28;20125;-88
2024/01/13 12:33:53;;;;;;;0.10;0.10;;;;;;;;;;5053762;28;20041;-89
2024/01/13 12:36:19;;;;;;;4.95;0.25;;;;;;;;;;5053897;28;20119;-88
2024/01/13 12:38:45;;;;;;;0.10;0.10;;;;;;;;;;5045510;28;20108;-89
2024/01/13 12:41:11;;;;;;;0.60;0.60;;;;;;;;;;5053022;28;20108;-90
2024/01/13 12:43:39;;;;;;;0.20;0.20;;;;;;;;;;5053885;28;20349;-89
2024/01/13 12:46:05;;;;;;;0.20;0.20;;;;;;;;;;5054112;28;20046;-89
2024/01/13 12:48:31;;;;;;;0.10;0.10;;;;;;;;;;5037176;28;20068;-90
2024/01/13 12:50:57;;;;;;;0.20;0.20;;;;;;;;;;5054172;28;20040;-89
2024/01/13 12:53:26;;;;;;;1.48;1.48;;;;;;;;;;5070845;28;20050;-90
2024/01/13 12:55:53;;;;;;;0.10;0.10;;;;;;;;;;5037652;28;20036;-90
2024/01/13 12:58:19;;;;;;;0.10;0.10;;;;;;;;;;5037733;28;20048;-90
2024/01/13 13:00:45;;;;;;;0.10;0.10;;;;;;;;;;5053964;28;20165;-90
2024/01/13 13:03:11;;;;;;;0.10;0.10;;;;;;;;;;5074577;28;20048;-91
2024/01/13 13:05:37;;;;;;;0.10;0.10;;;;;;;;;;5058756;28;20040;-88
2024/01/13 13:08:03;;;;;;;0.10;0.10;;;;;;;;;;5075626;28;20488;-93
2024/01/13 13:10:29;;;;;;;0.10;0.10;;;;;;;;;;5059248;28;20488;-91
2024/01/13 13:12:59;;;;;;;0.10;0.10;;;;;;;;;;5058853;28;20036;-91
2024/01/13 13:15:25;;;;;;;0.10;0.10;;;;;;;;;;5059383;28;20055;-90
2024/01/13 13:17:51;;;;;;;0.10;0.10;;;;;;;;;;5058591;28;20541;-91
2024/01/13 13:20:17;;;;;;;0.75;0.50;;;;;;;;;;5059051;28;20089;-92
2024/01/13 13:22:43;;;;;;;0.10;0.10;;;;;;;;;;5075313;28;20040;-92
2024/01/13 13:25:09;;;;;;;0.10;0.10;;;;;;;;;;5059431;28;20037;-91
2024/01/13 13:27:35;;;;;;;0.10;0.10;;;;;;;;;;5058898;28;20079;-91
2024/01/13 13:30:04;;;;;;;0.20;0.20;;;;;;;;;;5058225;28;20568;-92
2024/01/13 13:32:32;;;;;;;0.10;0.10;;;;;;;;;;5042252;28;20037;-89
2024/01/13 13:34:58;;;;;;;0.20;0.20;;;;;;;;;;5041115;28;20048;-89
2024/01/13 13:37:24;;;;;;;0.10;0.10;;;;;;;;;;5040549;28;20037;-87
2024/01/13 13:39:50;;;;;;;0.47;0.47;;;;;;;;;;5073690;28;20048;-88
2024/01/13 13:42:16;;;;;;;0.10;0.10;;;;;;;;;;5056377;28;20041;-88
2024/01/13 13:44:42;;;;;;;0.10;0.10;;;;;;;;;;5057573;28;20124;-87
2024/01/13 13:47:08;;;;;;;0.38;0.38;;;;;;;;;;5057402;28;20503;-88
2024/01/13 13:49:34;;;;;;;0.10;0.10;;;;;;;;;;5073808;28;20052;-87
2024/01/13 13:52:00;;;;;;;0.10;0.10;;;;;;;;;;5057011;28;20073;-90
2024/01/13 13:54:26;;;;;;;0.10;0.10;;;;;;;;;;5057318;28;20138;-89
2024/01/13 13:56:52;;;;;;;0.10;0.10;;;;;;;;;;5057263;28;20204;-88
2024/01/13 13:59:18;;;;;;;0.45;0.17;;;;;;;;;;5040248;28;20143;-90
2024/01/13 14:01:44;;;;;;;0.10;0.10;;;;;;;;;;5056453;28;20032;-90
2024/01/13 14:04:10;;;;;;;0.10;0.10;;;;;;;;;;5040143;28;20063;-89
2024/01/13 14:06:37;;;;;;;0.20;0.20;;;;;;;;;;5057215;28;20043;-92
2024/01/13 14:09:03;;;;;;;0.10;0.10;;;;;;;;;;5057176;28;20086;-89
2024/01/13 14:11:30;;;;;;;0.10;0.10;;;;;;;;;;5059671;28;20047;-94
2024/01/13 14:13:56;;;;;;;0.10;0.10;;;;;;;;;;5056165;28;20052;-87
2024/01/13 14:16:22;;;;;;;0.10;0.10;;;;;;;;;;5056744;28;20040;-88
2024/01/13 14:18:50;;;;;;;0.10;0.10;;;;;;;;;;5056688;28;20498;-87
2024/01/13 14:21:16;;;;;;;0.10;0.10;;;;;;;;;;5072640;28;20040;-87
2024/01/13 14:23:42;;;;;;;0.10;0.10;;;;;;;;;;5056371;28;20063;-87
2024/01/13 14:26:09;;;;;;;0.15;0.15;;;;;;;;;;5072915;28;20080;-85
2024/01/13 14:28:35;;;;;;;0.10;0.10;;;;;;;;;;5056271;28;20086;-87
2024/01/13 14:31:03;;;;;;;0.10;0.10;;;;;;;;;;5056573;28;20048;-87
2024/01/13 14:33:29;;;;;;;0.10;0.10;;;;;;;;;;5056448;28;20044;-86
2024/01/13 14:35:55;;;;;;;1.20;0.40;;;;;;;;;;5056035;28;20388;-87
2024/01/13 14:38:22;;;;;;;0.10;0.10;;;;;;;;;;5056122;28;20088;-88
2024/01/13 14:40:48;;;;;;;0.10;0.10;;;;;;;;;;5056679;28;20076;-87
2024/01/13 14:43:14;;;;;;;0.10;0.10;;;;;;;;;;5056881;28;20079;-89